aviador You're here:

SARC Decoded Metar

CORRIENTES in ARGENTINA
Report Time2018-04-21 07:00:00
UTC Time2018-04-21 07:59:58
Flight Rules mvfr MVFR
Wind020° at 09 kt
W.Decomp.*RWY 02: 8.9 kt HW 1.6 kt RCW
W.Rank020° ranks 8
Current wind is above 020° avg. (8.5)
Visibility7000 m
Phenomena:N/A
Clouds:N/A
Expected CloudBase > 1,600 ft AGL from Temp-Dew spread
CeilingNone
Temp25°C (ISA +10)
Dew Point21°C (79% RH)
QNH1013 hPa
Density Alt1,736 ft
Elevation203 ft
Report Wrong Elevation
Raw Report
METAR SARC 210700Z 02009KT 7000 NSC 25/21 Q1013=

Extra information for SARC:More info

Metar Taf Metar & Taf Last 4 Metars F.Rules Stats Wind Profile Meteogram Temp Stats Airport Information Weather charts Add Link Nearby VenuesMetar ALERT Operation Metar Decoded Social comments